KPSK/PSK METAR and TAF weather

Enter ICAO airport designator
Station Type Date Time Source
KPSK METAR 2024/06/14 20:55 UTC NOAA

KPSK 142055Z AUTO 33004KT 10SM SCT120 27/16 A2998 RMK AO2 T02720164


Station Type Date Time Source
KPSK Decoded METAR 2024/06/14 20:55 UTC NOAA

Dublin / New River Valley, VA, United States (KPSK) 37-08N 080-41W
Jun 14, 2024 - 04:55 PM EDT / 2024.06.14 2055 UTC
Wind: from the NNW (330 degrees) at 5 MPH (4 KT):0
Visibility: 10 mile(s):0
Sky conditions: partly cloudy
Temperature: 81.0 F (27.2 C)
Dew Point: 61.5 F (16.4 C)
Relative Humidity: 51%
Pressure (altimeter): 29.98 in. Hg (1015 hPa)
ob: KPSK 142055Z AUTO 33004KT 10SM SCT120 27/16 A2998 RMK AO2 T02720164
cycle: 21

Station Type Date Time Source
KPSK TAF UTC NOAA

Error!

Example: see airport list